createdAt,value
2017-12-17T00:00:48.447Z,0
2017-12-17T00:01:58.709Z,0
2017-12-17T00:03:09.110Z,0
2017-12-17T00:04:19.406Z,0
2017-12-17T00:05:29.725Z,0
2017-12-17T00:06:40.002Z,0
2017-12-17T00:07:50.241Z,0
2017-12-17T00:09:00.301Z,0
2017-12-17T00:10:10.185Z,0
2017-12-17T00:11:19.956Z,0
2017-12-17T00:12:30.286Z,0
2017-12-17T00:13:40.303Z,0
2017-12-17T00:14:50.312Z,0
2017-12-17T00:16:00.424Z,0
2017-12-17T00:17:10.689Z,0
2017-12-17T00:18:20.715Z,0
2017-12-17T00:19:30.635Z,0
2017-12-17T00:20:40.915Z,0
2017-12-17T00:21:50.809Z,0
2017-12-17T00:23:00.833Z,0
2017-12-17T00:24:11.216Z,0
2017-12-17T00:25:21.533Z,0
2017-12-17T00:26:31.536Z,0
2017-12-17T00:27:41.813Z,0
2017-12-17T00:28:52.100Z,0
2017-12-17T00:30:02.356Z,0
2017-12-17T00:31:12.624Z,0
2017-12-17T00:32:22.892Z,0
2017-12-17T00:33:32.974Z,0
2017-12-17T00:34:43.258Z,0
2017-12-17T00:35:53.549Z,0
2017-12-17T00:37:03.796Z,0
2017-12-17T00:38:14.078Z,0
2017-12-17T00:39:24.077Z,0
2017-12-17T00:40:34.328Z,0
2017-12-17T00:41:44.579Z,0
2017-12-17T00:42:54.854Z,0
2017-12-17T00:44:05.117Z,0
2017-12-17T00:45:15.114Z,0
2017-12-17T00:46:25.478Z,0
2017-12-17T00:47:35.796Z,0
2017-12-17T00:48:46.381Z,0
2017-12-17T00:49:56.627Z,0
2017-12-17T00:51:06.925Z,0
2017-12-17T00:52:16.984Z,0
2017-12-17T00:53:27.290Z,0
2017-12-17T00:54:37.543Z,0
2017-12-17T00:55:47.788Z,0
2017-12-17T00:56:59.016Z,0
2017-12-17T00:58:09.075Z,0
2017-12-17T00:59:19.368Z,0
2017-12-17T01:00:29.646Z,0
2017-12-17T01:01:39.640Z,0
2017-12-17T01:02:49.639Z,0
2017-12-17T01:03:59.672Z,0
2017-12-17T01:05:09.930Z,0
2017-12-17T01:06:20.197Z,0
2017-12-17T01:07:30.429Z,0
2017-12-17T01:08:40.708Z,0
2017-12-17T01:09:51.034Z,0
2017-12-17T01:11:01.289Z,0
2017-12-17T01:12:11.299Z,0
2017-12-17T01:13:21.594Z,0
2017-12-17T01:14:32.137Z,0
2017-12-17T01:15:42.412Z,0
2017-12-17T01:16:52.658Z,0
2017-12-17T01:18:02.931Z,0
2017-12-17T01:19:13.190Z,0
2017-12-17T01:20:23.448Z,0
2017-12-17T01:21:33.700Z,0
2017-12-17T01:22:43.950Z,0
2017-12-17T01:23:54.229Z,0
2017-12-17T01:25:04.500Z,0
2017-12-17T01:26:14.520Z,0
2017-12-17T01:27:24.798Z,0
2017-12-17T01:28:35.049Z,0
2017-12-17T01:30:17.187Z,0
2017-12-17T01:31:27.472Z,0
2017-12-17T01:32:37.736Z,0
2017-12-17T01:33:47.744Z,0
2017-12-17T01:34:58.043Z,0
2017-12-17T01:36:08.296Z,0
2017-12-17T01:37:18.571Z,0
2017-12-17T01:38:28.543Z,0
2017-12-17T01:39:38.905Z,0
2017-12-17T01:40:49.199Z,0
2017-12-17T01:41:59.504Z,0
2017-12-17T01:43:09.749Z,0
2017-12-17T01:44:20.049Z,0
2017-12-17T01:45:30.140Z,0
2017-12-17T01:46:40.261Z,0
2017-12-17T01:47:50.510Z,0
2017-12-17T01:49:00.799Z,0
2017-12-17T01:50:11.096Z,0
2017-12-17T01:51:21.112Z,0
2017-12-17T01:52:31.436Z,0
2017-12-17T01:53:41.710Z,0
2017-12-17T01:54:51.960Z,0
2017-12-17T01:56:02.276Z,0
2017-12-17T01:57:12.530Z,0
2017-12-17T01:58:22.592Z,0
2017-12-17T01:59:32.889Z,0
2017-12-17T02:00:43.159Z,0
2017-12-17T02:01:53.407Z,0
2017-12-17T02:03:03.687Z,0
2017-12-17T02:04:14.200Z,0
2017-12-17T02:05:24.313Z,0
2017-12-17T02:06:34.587Z,0
2017-12-17T02:07:44.506Z,0
2017-12-17T02:08:54.543Z,0
2017-12-17T02:10:04.866Z,0
2017-12-17T02:11:14.505Z,0
2017-12-17T02:12:24.817Z,0
2017-12-17T02:13:35.095Z,0
2017-12-17T02:14:45.162Z,0
2017-12-17T02:15:55.442Z,0
2017-12-17T02:17:05.778Z,0
2017-12-17T02:18:16.027Z,0
2017-12-17T02:19:26.283Z,0
2017-12-17T02:20:36.599Z,0
2017-12-17T02:21:46.866Z,0
2017-12-17T02:22:57.131Z,0
2017-12-17T02:24:07.403Z,0
2017-12-17T02:25:17.727Z,0
2017-12-17T02:26:27.964Z,0
2017-12-17T02:27:37.972Z,0
2017-12-17T02:28:48.267Z,0
2017-12-17T02:29:58.515Z,0
2017-12-17T02:31:08.763Z,0
2017-12-17T02:32:19.049Z,0
2017-12-17T02:33:29.366Z,0
2017-12-17T02:34:39.416Z,0
2017-12-17T02:35:49.725Z,0
2017-12-17T02:37:00.680Z,0
2017-12-17T02:38:10.944Z,0
2017-12-17T02:39:21.326Z,0
2017-12-17T02:40:31.608Z,0
2017-12-17T02:41:41.843Z,0
2017-12-17T02:42:52.098Z,0
2017-12-17T02:44:02.390Z,0
2017-12-17T02:45:12.638Z,0
2017-12-17T02:46:22.950Z,0
2017-12-17T02:47:33.236Z,0
2017-12-17T02:48:43.677Z,0
2017-12-17T02:49:53.919Z,0
2017-12-17T02:51:03.540Z,0
2017-12-17T02:52:13.199Z,0
2017-12-17T02:53:23.112Z,0
2017-12-17T02:54:33.122Z,0
2017-12-17T02:55:43.486Z,0
2017-12-17T02:56:53.728Z,0
2017-12-17T02:58:03.339Z,0
2017-12-17T02:59:13.015Z,0
2017-12-17T03:00:23.348Z,0
2017-12-17T03:01:33.627Z,0
2017-12-17T03:02:43.897Z,0
2017-12-17T03:03:54.171Z,0
2017-12-17T03:05:04.153Z,0
2017-12-17T03:06:14.403Z,0
2017-12-17T03:07:24.690Z,0
2017-12-17T03:08:34.976Z,0
2017-12-17T03:09:45.051Z,0
2017-12-17T03:10:55.353Z,0
2017-12-17T03:12:05.635Z,0
2017-12-17T03:13:15.961Z,0
2017-12-17T03:14:26.203Z,0
2017-12-17T03:15:36.443Z,0
2017-12-17T03:16:46.685Z,0
2017-12-17T03:17:56.923Z,0
2017-12-17T03:19:07.207Z,0
2017-12-17T03:20:17.316Z,0
2017-12-17T03:21:27.572Z,0
2017-12-17T03:22:38.060Z,0
2017-12-17T03:23:47.949Z,0
2017-12-17T03:24:58.179Z,0
2017-12-17T03:26:08.413Z,0
2017-12-17T03:27:18.667Z,0
2017-12-17T03:28:28.645Z,0
2017-12-17T03:29:38.135Z,0
2017-12-17T03:30:48.411Z,0
2017-12-17T03:31:58.677Z,0
2017-12-17T03:33:08.948Z,0
2017-12-17T03:34:19.267Z,0
2017-12-17T03:35:29.533Z,0
2017-12-17T03:36:39.858Z,0
2017-12-17T03:37:50.148Z,0
2017-12-17T03:39:00.396Z,0
2017-12-17T03:40:10.525Z,0
2017-12-17T03:41:20.808Z,0
2017-12-17T03:42:31.052Z,0
2017-12-17T03:43:41.303Z,0
2017-12-17T03:44:51.545Z,0
2017-12-17T03:46:01.453Z,0
2017-12-17T03:47:11.786Z,0
2017-12-17T03:48:22.060Z,0
2017-12-17T03:49:32.296Z,0
2017-12-17T03:50:42.576Z,0
2017-12-17T03:51:52.821Z,0
2017-12-17T03:53:03.118Z,0
2017-12-17T03:54:13.371Z,0
2017-12-17T03:55:23.894Z,0
2017-12-17T03:56:35.113Z,0
2017-12-17T03:57:45.373Z,0
2017-12-17T03:58:55.474Z,0
2017-12-17T04:00:05.724Z,0
2017-12-17T04:01:16.044Z,0
2017-12-17T04:02:26.301Z,0
2017-12-17T04:03:36.545Z,0
2017-12-17T04:04:46.818Z,0
2017-12-17T04:05:57.060Z,0
2017-12-17T04:07:07.099Z,0
2017-12-17T04:08:17.359Z,0
2017-12-17T04:09:27.611Z,0
2017-12-17T04:10:37.862Z,0
2017-12-17T04:11:48.109Z,0
2017-12-17T04:12:57.820Z,0
2017-12-17T04:14:07.732Z,0
2017-12-17T04:15:17.858Z,0
2017-12-17T04:16:28.228Z,0
2017-12-17T04:17:38.499Z,0
2017-12-17T04:18:48.793Z,0
2017-12-17T04:19:58.936Z,0
2017-12-17T04:21:09.295Z,0
2017-12-17T04:22:19.565Z,0
2017-12-17T04:23:29.296Z,0
2017-12-17T04:24:39.002Z,0
2017-12-17T04:25:49.036Z,0
2017-12-17T04:26:59.072Z,0
2017-12-17T04:28:08.707Z,0
2017-12-17T04:29:18.963Z,0
2017-12-17T04:30:29.237Z,0
2017-12-17T04:31:39.571Z,0
2017-12-17T04:32:49.829Z,0
2017-12-17T04:34:00.110Z,0
2017-12-17T04:35:10.366Z,0
2017-12-17T04:36:20.611Z,0
2017-12-17T04:37:30.603Z,0
2017-12-17T04:38:40.852Z,0
2017-12-17T04:39:51.102Z,0
2017-12-17T04:41:01.431Z,0
2017-12-17T04:42:11.687Z,0
2017-12-17T04:43:22.893Z,0
2017-12-17T04:44:33.132Z,0
2017-12-17T04:45:43.395Z,0
2017-12-17T04:46:53.650Z,0
2017-12-17T04:48:03.754Z,0
2017-12-17T04:49:14.002Z,0
2017-12-17T04:50:24.241Z,0
2017-12-17T04:51:34.108Z,0
2017-12-17T04:52:44.116Z,0
2017-12-17T04:53:54.122Z,0
2017-12-17T04:55:04.113Z,0
2017-12-17T04:56:14.366Z,0
2017-12-17T04:57:24.099Z,0
2017-12-17T04:58:34.425Z,0
2017-12-17T04:59:44.503Z,0
2017-12-17T05:00:54.788Z,0
2017-12-17T05:02:05.076Z,0
2017-12-17T05:03:14.895Z,0
2017-12-17T05:04:24.795Z,0
2017-12-17T05:05:34.275Z,0
2017-12-17T05:06:44.613Z,0
2017-12-17T05:07:54.653Z,0
2017-12-17T05:09:04.917Z,0
2017-12-17T05:10:15.183Z,0
2017-12-17T05:11:25.461Z,0
2017-12-17T05:12:35.451Z,0
2017-12-17T05:13:45.805Z,0
2017-12-17T05:14:56.116Z,0
2017-12-17T05:16:06.096Z,0
2017-12-17T05:17:16.065Z,0
2017-12-17T05:18:26.340Z,0
2017-12-17T05:19:36.582Z,0
2017-12-17T05:20:46.843Z,0
2017-12-17T05:21:57.082Z,0
2017-12-17T05:23:07.590Z,0
2017-12-17T05:24:17.849Z,0
2017-12-17T05:25:27.972Z,0
2017-12-17T05:26:38.221Z,0
2017-12-17T05:27:48.560Z,0
2017-12-17T05:28:58.811Z,0
2017-12-17T05:30:09.057Z,0
2017-12-17T05:31:18.776Z,0
2017-12-17T05:32:29.009Z,0
2017-12-17T05:33:39.257Z,0
2017-12-17T05:34:49.271Z,0
2017-12-17T05:35:59.768Z,0
2017-12-17T05:37:10.099Z,0
2017-12-17T05:38:19.956Z,0
2017-12-17T05:39:30.275Z,0
2017-12-17T05:40:40.535Z,0
2017-12-17T05:41:50.546Z,0
2017-12-17T05:43:00.905Z,0
2017-12-17T05:44:11.153Z,0
2017-12-17T05:45:21.138Z,0
2017-12-17T05:46:31.386Z,0
2017-12-17T05:47:41.343Z,0
2017-12-17T05:48:51.583Z,0
2017-12-17T05:50:01.826Z,0
2017-12-17T05:51:12.068Z,0
2017-12-17T05:52:22.054Z,0
2017-12-17T05:53:32.047Z,0
2017-12-17T05:54:42.297Z,0
2017-12-17T05:55:52.020Z,0
2017-12-17T05:57:02.376Z,0
2017-12-17T05:58:12.756Z,0
2017-12-17T05:59:23.011Z,0
2017-12-17T06:00:33.255Z,0
2017-12-17T06:01:43.540Z,0
2017-12-17T06:02:53.828Z,0
2017-12-17T06:04:04.182Z,0
2017-12-17T06:05:14.500Z,0
2017-12-17T06:06:24.802Z,0
2017-12-17T06:07:35.106Z,0
2017-12-17T06:08:45.124Z,0
2017-12-17T06:09:55.506Z,0
2017-12-17T06:11:05.784Z,0
2017-12-17T06:12:16.043Z,0
2017-12-17T06:13:26.333Z,0
2017-12-17T06:14:36.562Z,0
2017-12-17T06:15:46.836Z,0
2017-12-17T06:16:56.576Z,0
2017-12-17T06:18:06.886Z,0
2017-12-17T06:19:16.861Z,0
2017-12-17T06:20:27.119Z,0
2017-12-17T06:21:37.378Z,0
2017-12-17T06:22:47.630Z,0
2017-12-17T06:23:57.880Z,0
2017-12-17T06:25:08.243Z,0
2017-12-17T06:26:18.238Z,0
2017-12-17T06:27:28.534Z,0
2017-12-17T06:28:38.899Z,0
2017-12-17T06:29:48.912Z,0
2017-12-17T06:30:59.155Z,0
2017-12-17T06:32:09.162Z,0
2017-12-17T06:33:19.416Z,0
2017-12-17T06:34:29.742Z,0
2017-12-17T06:35:40.077Z,0
2017-12-17T06:36:50.170Z,0
2017-12-17T06:38:00.427Z,0
2017-12-17T06:39:10.700Z,0
2017-12-17T06:40:20.582Z,0
2017-12-17T06:41:30.948Z,0
2017-12-17T06:42:41.291Z,0
2017-12-17T06:43:51.526Z,0
2017-12-17T06:45:01.585Z,0
2017-12-17T06:46:11.895Z,0
2017-12-17T06:47:22.189Z,0
2017-12-17T06:48:32.291Z,0
2017-12-17T06:49:42.280Z,0
2017-12-17T06:50:52.745Z,0
2017-12-17T06:52:03.058Z,4
2017-12-17T06:53:13.347Z,4
2017-12-17T06:54:23.589Z,0
2017-12-17T06:55:33.846Z,4
2017-12-17T06:56:44.245Z,8
2017-12-17T06:57:54.228Z,12
2017-12-17T06:59:04.647Z,16
2017-12-17T07:00:14.937Z,24
2017-12-17T07:01:24.917Z,32
2017-12-17T07:02:35.156Z,36
2017-12-17T07:03:45.408Z,44
2017-12-17T07:04:55.690Z,56
2017-12-17T07:06:06.074Z,68
2017-12-17T07:07:16.349Z,80
2017-12-17T07:08:26.619Z,92
2017-12-17T07:09:36.540Z,108
2017-12-17T07:10:46.899Z,116
2017-12-17T07:11:57.192Z,124
2017-12-17T07:13:08.405Z,136
2017-12-17T07:14:18.657Z,152
2017-12-17T07:15:28.934Z,168
2017-12-17T07:16:39.244Z,180
2017-12-17T07:17:49.500Z,192
2017-12-17T07:18:59.525Z,216
2017-12-17T07:20:09.494Z,236
2017-12-17T07:21:19.518Z,260
2017-12-17T07:22:29.803Z,288
2017-12-17T07:23:40.059Z,316
2017-12-17T07:24:50.050Z,340
2017-12-17T07:26:00.329Z,364
2017-12-17T07:27:10.627Z,392
2017-12-17T07:28:20.948Z,412
2017-12-17T07:29:30.860Z,436
2017-12-17T07:30:41.152Z,452
2017-12-17T07:31:51.104Z,468
2017-12-17T07:33:01.392Z,484
2017-12-17T07:34:11.143Z,500
2017-12-17T07:35:21.125Z,520
2017-12-17T07:36:31.397Z,536
2017-12-17T07:37:41.702Z,564
2017-12-17T07:38:51.991Z,592
2017-12-17T07:40:02.254Z,632
2017-12-17T07:41:12.358Z,668
2017-12-17T07:42:22.649Z,680
2017-12-17T07:43:32.901Z,676
2017-12-17T07:44:43.156Z,652
2017-12-17T07:45:53.507Z,624
2017-12-17T07:47:03.225Z,604
2017-12-17T07:48:13.627Z,616
2017-12-17T07:49:23.607Z,636
2017-12-17T07:50:33.672Z,656
2017-12-17T07:51:43.937Z,680
2017-12-17T07:52:54.198Z,720
2017-12-17T07:54:04.478Z,748
2017-12-17T07:55:14.488Z,764
2017-12-17T07:56:24.750Z,776
2017-12-17T07:57:35.036Z,784
2017-12-17T07:58:44.842Z,780
2017-12-17T07:59:54.880Z,780
2017-12-17T08:01:04.636Z,768
2017-12-17T08:02:14.904Z,784
2017-12-17T08:03:25.186Z,828
2017-12-17T08:04:35.437Z,888
2017-12-17T08:05:45.470Z,952
2017-12-17T08:06:55.490Z,1024
2017-12-17T08:08:05.151Z,1120
2017-12-17T08:09:15.451Z,1212
2017-12-17T08:10:25.705Z,1272
2017-12-17T08:11:36.128Z,1316
2017-12-17T08:12:46.385Z,1368
2017-12-17T08:13:56.673Z,1396
2017-12-17T08:15:06.934Z,1416
2017-12-17T08:16:16.934Z,1496
2017-12-17T08:17:27.278Z,1600
2017-12-17T08:18:37.601Z,1660
2017-12-17T08:19:47.863Z,1708
2017-12-17T08:20:58.137Z,1776
2017-12-17T08:22:08.648Z,1828
2017-12-17T08:23:18.829Z,1784
2017-12-17T08:24:29.133Z,1752
2017-12-17T08:25:39.401Z,1764
2017-12-17T08:26:49.652Z,1812
2017-12-17T08:27:59.377Z,1904
2017-12-17T08:29:09.310Z,2028
2017-12-17T08:30:19.241Z,2208
2017-12-17T08:31:29.351Z,2368
2017-12-17T08:32:39.700Z,2580
2017-12-17T08:33:49.596Z,2856
2017-12-17T08:34:59.899Z,3096
2017-12-17T08:36:10.330Z,3296
2017-12-17T08:37:20.598Z,3420
2017-12-17T08:38:30.855Z,3520
2017-12-17T08:39:41.157Z,3596
2017-12-17T08:40:51.428Z,3600
2017-12-17T08:42:01.442Z,3552
2017-12-17T08:43:11.337Z,3520
2017-12-17T08:44:21.768Z,3508
2017-12-17T08:45:32.102Z,3480
2017-12-17T08:46:42.410Z,3496
2017-12-17T08:47:52.747Z,3476
2017-12-17T08:49:03.034Z,3356
2017-12-17T08:50:13.051Z,3276
2017-12-17T08:51:23.321Z,3236
2017-12-17T08:52:33.379Z,3236
2017-12-17T08:53:43.645Z,3292
2017-12-17T08:54:53.693Z,3332
2017-12-17T08:56:04.056Z,3332
2017-12-17T08:57:14.238Z,3244
2017-12-17T08:58:24.552Z,3072
2017-12-17T08:59:37.034Z,2932
2017-12-17T09:00:47.422Z,2820
2017-12-17T09:01:57.705Z,2600
2017-12-17T09:03:07.967Z,2376
2017-12-17T09:04:18.230Z,1968
2017-12-17T09:05:28.660Z,1824
2017-12-17T09:06:39.972Z,1904
2017-12-17T09:07:52.017Z,1680
2017-12-17T09:09:02.334Z,1752
2017-12-17T09:10:12.589Z,1904
2017-12-17T09:11:22.900Z,1772
2017-12-17T09:12:33.998Z,1600
2017-12-17T09:13:44.001Z,1472
2017-12-17T09:14:54.400Z,1228
2017-12-17T09:16:04.372Z,1108
2017-12-17T09:17:14.650Z,1044
2017-12-17T09:18:24.661Z,1008
2017-12-17T09:19:36.297Z,1112
2017-12-17T09:20:46.585Z,1540
2017-12-17T09:21:56.651Z,1392
2017-12-17T09:23:06.636Z,1920
2017-12-17T09:24:16.934Z,2136
2017-12-17T09:25:27.263Z,1876
2017-12-17T09:26:37.191Z,1424
2017-12-17T09:27:47.220Z,1304
2017-12-17T09:28:57.186Z,1236
2017-12-17T09:30:07.216Z,1384
2017-12-17T09:31:17.517Z,1852
2017-12-17T09:32:27.793Z,1624
2017-12-17T09:33:37.840Z,1508
2017-12-17T09:34:48.194Z,1432
2017-12-17T09:35:58.471Z,1588
2017-12-17T09:37:08.812Z,1720
2017-12-17T09:38:18.854Z,1800
2017-12-17T09:39:29.194Z,1608
2017-12-17T09:40:39.436Z,1324
2017-12-17T09:41:53.991Z,1268
2017-12-17T09:43:05.930Z,1396
2017-12-17T09:44:16.080Z,1540
2017-12-17T09:45:26.441Z,1672
2017-12-17T09:46:36.722Z,1784
2017-12-17T09:47:47.986Z,1968
2017-12-17T09:48:58.593Z,2072
2017-12-17T09:50:08.902Z,2064
2017-12-17T09:51:19.196Z,1956
2017-12-17T09:52:29.496Z,2152
2017-12-17T09:53:39.818Z,2128
2017-12-17T09:54:50.106Z,2008
2017-12-17T09:56:00.482Z,1988
2017-12-17T09:57:10.787Z,2104
2017-12-17T09:58:20.736Z,2152
2017-12-17T09:59:30.480Z,2048
2017-12-17T10:00:40.506Z,1976
2017-12-17T10:01:50.311Z,1820
2017-12-17T10:03:00.627Z,1776
2017-12-17T10:04:11.176Z,1740
2017-12-17T10:05:21.469Z,1896
2017-12-17T10:06:31.752Z,2124
2017-12-17T10:07:42.167Z,2288
2017-12-17T10:08:52.073Z,2400
2017-12-17T10:10:02.409Z,2788
2017-12-17T10:11:12.696Z,2600
2017-12-17T10:12:23.053Z,2360
2017-12-17T10:13:33.097Z,2296
2017-12-17T10:14:43.029Z,2612
2017-12-17T10:15:53.050Z,2464
2017-12-17T10:17:03.295Z,2172
2017-12-17T10:18:13.318Z,2008
2017-12-17T10:19:23.647Z,1892
2017-12-17T10:20:33.552Z,1824
2017-12-17T10:21:43.993Z,1628
2017-12-17T10:22:54.311Z,1488
2017-12-17T10:24:04.573Z,1468
2017-12-17T10:25:46.746Z,1444
2017-12-17T10:26:56.800Z,1420
2017-12-17T10:28:07.121Z,1292
2017-12-17T10:29:17.446Z,1340
2017-12-17T10:30:27.500Z,1312
2017-12-17T10:31:37.794Z,1316
2017-12-17T10:32:48.170Z,1388
2017-12-17T10:33:58.452Z,1752
2017-12-17T10:35:08.498Z,2120
2017-12-17T10:36:18.749Z,2588
2017-12-17T10:37:29.065Z,2856
2017-12-17T10:38:39.335Z,3732
2017-12-17T10:39:49.666Z,4836
2017-12-17T10:40:59.965Z,4328
2017-12-17T10:42:09.603Z,3636
2017-12-17T10:43:20.101Z,3052
2017-12-17T10:44:30.385Z,2820
2017-12-17T10:45:40.657Z,2804
2017-12-17T10:46:50.969Z,2624
2017-12-17T10:48:01.254Z,2240
2017-12-17T10:49:11.649Z,2212
2017-12-17T10:50:21.982Z,2072
2017-12-17T10:51:31.969Z,2108
2017-12-17T10:52:42.346Z,2568
2017-12-17T10:53:52.365Z,3212
2017-12-17T10:55:02.665Z,3948
2017-12-17T10:56:12.982Z,4348
2017-12-17T10:57:23.075Z,5016
2017-12-17T10:58:33.452Z,5740
2017-12-17T10:59:43.912Z,6280
2017-12-17T11:00:54.192Z,6400
2017-12-17T11:02:05.259Z,5540
2017-12-17T11:03:15.546Z,4740
2017-12-17T11:04:25.815Z,4644
2017-12-17T11:05:36.412Z,5392
2017-12-17T11:06:46.519Z,6268
2017-12-17T11:07:56.803Z,6072
2017-12-17T11:09:06.991Z,6372
2017-12-17T11:10:17.274Z,6964
2017-12-17T11:11:27.599Z,8668
2017-12-17T11:12:37.929Z,11632
2017-12-17T11:13:48.244Z,13604
2017-12-17T11:14:58.252Z,14720
2017-12-17T11:16:08.644Z,12776
2017-12-17T11:17:18.644Z,11444
2017-12-17T11:18:28.646Z,10340
2017-12-17T11:19:39.899Z,11744
2017-12-17T11:20:50.174Z,11736
2017-12-17T11:22:00.452Z,11412
2017-12-17T11:23:10.791Z,11796
2017-12-17T11:24:20.870Z,12040
2017-12-17T11:25:30.802Z,13452
2017-12-17T11:26:41.090Z,11988
2017-12-17T11:27:52.101Z,10120
2017-12-17T11:29:02.009Z,10244
2017-12-17T11:30:12.067Z,7428
2017-12-17T11:31:22.354Z,7576
2017-12-17T11:32:32.020Z,8808
2017-12-17T11:33:42.075Z,8104
2017-12-17T11:34:52.389Z,8384
2017-12-17T11:36:02.484Z,7044
2017-12-17T11:37:13.786Z,6056
2017-12-17T11:38:24.116Z,6404
2017-12-17T11:39:34.449Z,7636
2017-12-17T11:40:44.454Z,10324
2017-12-17T11:41:54.768Z,12764
2017-12-17T11:43:05.054Z,10480
2017-12-17T11:44:14.977Z,9288
2017-12-17T11:45:25.330Z,8416
2017-12-17T11:46:35.615Z,9456
2017-12-17T11:47:45.936Z,10496
2017-12-17T11:48:56.242Z,11296
2017-12-17T11:50:06.297Z,11280
2017-12-17T11:51:16.634Z,10320
2017-12-17T11:52:27.085Z,8208
2017-12-17T11:53:37.370Z,9024
2017-12-17T11:54:47.495Z,10716
2017-12-17T11:55:57.507Z,12216
2017-12-17T11:57:07.801Z,12228
2017-12-17T11:58:17.842Z,12992
2017-12-17T11:59:28.159Z,12888
2017-12-17T12:00:38.438Z,11664
2017-12-17T12:01:48.948Z,10568
2017-12-17T12:02:59.261Z,8556
2017-12-17T12:04:09.587Z,7856
2017-12-17T12:05:20.153Z,8436
2017-12-17T12:06:30.197Z,8224
2017-12-17T12:07:41.188Z,7376
2017-12-17T12:08:51.223Z,5868
2017-12-17T12:10:01.523Z,5012
2017-12-17T12:11:11.844Z,5668
2017-12-17T12:12:22.168Z,7064
2017-12-17T12:13:32.557Z,7636
2017-12-17T12:14:42.885Z,7224
2017-12-17T12:15:53.177Z,6344
2017-12-17T12:17:03.477Z,5612
2017-12-17T12:18:13.489Z,5180
2017-12-17T12:19:23.785Z,4824
2017-12-17T12:20:33.645Z,4656
2017-12-17T12:21:43.927Z,4464
2017-12-17T12:22:54.253Z,4452
2017-12-17T12:24:04.286Z,4500
2017-12-17T12:25:14.344Z,4972
2017-12-17T12:26:24.959Z,4384
2017-12-17T12:27:35.271Z,3724
2017-12-17T12:28:45.565Z,4160
2017-12-17T12:29:55.921Z,4456
2017-12-17T12:31:05.931Z,4412
2017-12-17T12:32:16.007Z,4532
2017-12-17T12:33:26.360Z,4268
2017-12-17T12:34:36.673Z,3392
2017-12-17T12:35:46.986Z,2868
2017-12-17T12:36:57.294Z,2468
2017-12-17T12:38:07.688Z,1996
2017-12-17T12:39:18.011Z,1724
2017-12-17T12:40:28.197Z,1728
2017-12-17T12:41:38.230Z,1660
2017-12-17T12:42:48.620Z,1584
2017-12-17T12:43:58.889Z,1768
2017-12-17T12:45:09.004Z,1904
2017-12-17T12:46:19.287Z,1692
2017-12-17T12:47:29.593Z,1472
2017-12-17T12:48:39.859Z,1344
2017-12-17T12:49:50.127Z,1300
2017-12-17T12:51:00.656Z,1200
2017-12-17T12:52:10.741Z,1436
2017-12-17T12:53:21.156Z,1608
2017-12-17T12:54:31.191Z,1452
2017-12-17T12:55:41.487Z,1332
2017-12-17T12:56:51.152Z,1184
2017-12-17T12:58:01.480Z,1080
2017-12-17T12:59:11.295Z,1088
2017-12-17T13:00:21.578Z,1228
2017-12-17T13:01:31.856Z,1600
2017-12-17T13:02:42.146Z,2024
2017-12-17T13:03:52.206Z,2316
2017-12-17T13:05:02.479Z,2532
2017-12-17T13:06:12.487Z,2704
2017-12-17T13:07:22.496Z,2564
2017-12-17T13:08:32.805Z,2328
2017-12-17T13:09:42.809Z,2124
2017-12-17T13:10:53.127Z,2036
2017-12-17T13:12:03.413Z,1868
2017-12-17T13:13:13.706Z,1928
2017-12-17T13:14:23.723Z,1976
2017-12-17T13:15:34.052Z,1912
2017-12-17T13:16:44.352Z,1836
2017-12-17T13:17:54.670Z,1764
2017-12-17T13:19:04.973Z,1784
2017-12-17T13:20:15.953Z,1728
2017-12-17T13:21:25.925Z,1664
2017-12-17T13:22:36.226Z,1612
2017-12-17T13:23:46.511Z,1552
2017-12-17T13:24:56.834Z,1448
2017-12-17T13:26:07.533Z,1408
2017-12-17T13:27:17.949Z,1428
2017-12-17T13:28:27.959Z,1548
2017-12-17T13:29:38.313Z,1648
2017-12-17T13:30:48.660Z,1616
2017-12-17T13:31:58.718Z,1560
2017-12-17T13:33:09.036Z,1604
2017-12-17T13:34:19.308Z,1612
2017-12-17T13:35:29.322Z,1604
2017-12-17T13:36:39.691Z,1556
2017-12-17T13:37:49.652Z,1476
2017-12-17T13:38:59.607Z,1444
2017-12-17T13:40:09.626Z,1456
2017-12-17T13:41:19.914Z,1544
2017-12-17T13:42:30.187Z,1580
2017-12-17T13:43:40.511Z,1572
2017-12-17T13:44:50.556Z,1520
2017-12-17T13:46:00.988Z,1504
2017-12-17T13:47:11.372Z,1464
2017-12-17T13:48:21.665Z,1368
2017-12-17T13:49:31.964Z,1332
2017-12-17T13:50:41.525Z,1232
2017-12-17T13:51:51.795Z,1136
2017-12-17T13:53:02.085Z,1096
2017-12-17T13:54:13.361Z,1072
2017-12-17T13:55:23.634Z,1028
2017-12-17T13:56:33.903Z,1008
2017-12-17T13:57:44.346Z,988
2017-12-17T13:58:54.408Z,936
2017-12-17T14:00:04.733Z,948
2017-12-17T14:01:15.271Z,936
2017-12-17T14:02:25.461Z,872
2017-12-17T14:03:35.785Z,832
2017-12-17T14:04:46.077Z,808
2017-12-17T14:05:55.991Z,812
2017-12-17T14:07:06.297Z,796
2017-12-17T14:08:16.373Z,784
2017-12-17T14:09:26.405Z,744
2017-12-17T14:10:36.800Z,720
2017-12-17T14:11:47.140Z,664
2017-12-17T14:12:57.468Z,620
2017-12-17T14:14:08.735Z,604
2017-12-17T14:15:18.839Z,608
2017-12-17T14:16:29.160Z,616
2017-12-17T14:17:39.532Z,608
2017-12-17T14:18:49.548Z,592
2017-12-17T14:19:59.867Z,560
2017-12-17T14:21:10.265Z,512
2017-12-17T14:22:20.637Z,488
2017-12-17T14:23:31.054Z,472
2017-12-17T14:24:41.481Z,452
2017-12-17T14:25:52.487Z,444
2017-12-17T14:27:03.867Z,420
2017-12-17T14:28:14.232Z,388
2017-12-17T14:29:24.800Z,372
2017-12-17T14:30:34.878Z,352
2017-12-17T14:31:45.214Z,348
2017-12-17T14:32:55.511Z,344
2017-12-17T14:34:05.871Z,336
2017-12-17T14:35:16.238Z,320
2017-12-17T14:36:26.582Z,316
2017-12-17T14:37:36.884Z,292
2017-12-17T14:38:46.955Z,272
2017-12-17T14:39:57.076Z,248
2017-12-17T14:41:07.378Z,244
2017-12-17T14:42:17.405Z,248
2017-12-17T14:43:27.742Z,240
2017-12-17T14:44:38.036Z,220
2017-12-17T14:45:48.408Z,196
2017-12-17T14:46:58.724Z,184
2017-12-17T14:48:09.068Z,184
2017-12-17T14:49:19.474Z,176
2017-12-17T14:50:29.763Z,164
2017-12-17T14:51:40.110Z,152
2017-12-17T14:52:50.384Z,136
2017-12-17T14:54:00.691Z,128
2017-12-17T14:55:11.176Z,112
2017-12-17T14:56:21.145Z,104
2017-12-17T14:57:31.482Z,92
2017-12-17T14:58:41.750Z,88
2017-12-17T14:59:52.032Z,88
2017-12-17T15:01:02.048Z,80
2017-12-17T15:02:12.413Z,72
2017-12-17T15:03:22.735Z,64
2017-12-17T15:04:32.810Z,60
2017-12-17T15:05:43.180Z,52
2017-12-17T15:06:53.230Z,44
2017-12-17T15:08:03.267Z,40
2017-12-17T15:09:13.383Z,36
2017-12-17T15:10:23.649Z,32
2017-12-17T15:11:33.688Z,28
2017-12-17T15:12:43.809Z,24
2017-12-17T15:13:54.100Z,24
2017-12-17T15:15:04.395Z,20
2017-12-17T15:16:14.687Z,16
2017-12-17T15:17:24.798Z,16
2017-12-17T15:18:35.100Z,16
2017-12-17T15:19:45.530Z,12
2017-12-17T15:20:55.910Z,8
2017-12-17T15:22:06.319Z,8
2017-12-17T15:23:17.797Z,8
2017-12-17T15:24:28.085Z,4
2017-12-17T15:25:38.432Z,4
2017-12-17T15:26:48.711Z,4
2017-12-17T15:27:59.218Z,4
2017-12-17T15:29:09.550Z,4
2017-12-17T15:30:19.653Z,4
2017-12-17T15:31:29.973Z,0
2017-12-17T15:32:40.149Z,4
2017-12-17T15:33:50.628Z,4
2017-12-17T15:35:00.995Z,4
2017-12-17T15:36:11.019Z,0
2017-12-17T15:37:21.431Z,0
2017-12-17T15:38:31.510Z,0
2017-12-17T15:39:41.587Z,0
2017-12-17T15:40:51.909Z,0
2017-12-17T15:42:02.347Z,0
2017-12-17T15:43:12.271Z,0
2017-12-17T15:44:22.060Z,0
2017-12-17T15:45:32.716Z,0
2017-12-17T15:46:42.780Z,0
2017-12-17T15:47:53.089Z,0
2017-12-17T15:49:03.403Z,0
2017-12-17T15:50:14.658Z,0
2017-12-17T15:51:25.142Z,0
2017-12-17T15:52:35.470Z,0
2017-12-17T15:53:45.777Z,0
2017-12-17T15:54:55.802Z,0
2017-12-17T15:56:05.901Z,0
2017-12-17T15:57:16.234Z,0
2017-12-17T15:58:25.990Z,0
2017-12-17T15:59:36.355Z,0
2017-12-17T16:00:46.653Z,0
2017-12-17T16:01:56.915Z,0
2017-12-17T16:03:07.232Z,0
2017-12-17T16:04:17.523Z,0
2017-12-17T16:05:27.869Z,0
2017-12-17T16:06:38.139Z,0
2017-12-17T16:07:49.379Z,0
2017-12-17T16:08:59.784Z,0
2017-12-17T16:10:10.125Z,0
2017-12-17T16:11:20.138Z,0
2017-12-17T16:12:30.339Z,0
2017-12-17T16:13:40.622Z,0
2017-12-17T16:14:50.773Z,0
2017-12-17T16:16:00.823Z,0
2017-12-17T16:17:11.133Z,0
2017-12-17T16:18:21.465Z,0
2017-12-17T16:19:32.716Z,0
2017-12-17T16:20:43.225Z,0
2017-12-17T16:21:53.274Z,0
2017-12-17T16:23:03.572Z,0
2017-12-17T16:24:13.906Z,0
2017-12-17T16:25:24.232Z,0
2017-12-17T16:26:34.330Z,0
2017-12-17T16:27:44.649Z,0
2017-12-17T16:28:54.941Z,0
2017-12-17T16:30:05.271Z,0